sensor_id;sensor_type;location;lat;lon;timestamp;pressure;altitude;pressure_sealevel;temperature;humidity
27643;BME280;15053;48.618;10.024;2023-07-29T00:00:01;93993.28;;;17.18;99.96
27643;BME280;15053;48.618;10.024;2023-07-29T00:02:37;94013.59;;;17.33;99.84
27643;BME280;15053;48.618;10.024;2023-07-29T00:05:04;94004.19;;;17.32;99.82
27643;BME280;15053;48.618;10.024;2023-07-29T00:07:31;93999.78;;;17.36;99.64
27643;BME280;15053;48.618;10.024;2023-07-29T00:09:57;93999.78;;;17.36;99.40
27643;BME280;15053;48.618;10.024;2023-07-29T00:12:25;93987.38;;;17.37;99.39
27643;BME280;15053;48.618;10.024;2023-07-29T00:14:51;93970.81;;;17.36;99.37
27643;BME280;15053;48.618;10.024;2023-07-29T00:17:18;93974.22;;;17.37;99.12
27643;BME280;15053;48.618;10.024;2023-07-29T00:19:46;93979.84;;;17.35;98.95
27643;BME280;15053;48.618;10.024;2023-07-29T00:22:13;93981.28;;;17.33;99.00
27643;BME280;15053;48.618;10.024;2023-07-29T00:24:40;93974.13;;;17.33;98.67
27643;BME280;15053;48.618;10.024;2023-07-29T00:27:07;93986.19;;;17.34;98.56
27643;BME280;15053;48.618;10.024;2023-07-29T00:29:34;93986.19;;;17.34;98.88
27643;BME280;15053;48.618;10.024;2023-07-29T00:32:00;93984.66;;;17.33;98.97
27643;BME280;15053;48.618;10.024;2023-07-29T00:34:27;93981.28;;;17.33;98.71
27643;BME280;15053;48.618;10.024;2023-07-29T00:36:53;93982.78;;;17.34;98.83
27643;BME280;15053;48.618;10.024;2023-07-29T00:39:20;93979.84;;;17.35;98.98
27643;BME280;15053;48.618;10.024;2023-07-29T00:41:46;93986.63;;;17.36;99.13
27643;BME280;15053;48.618;10.024;2023-07-29T00:44:13;93974.88;;;17.34;98.73
27643;BME280;15053;48.618;10.024;2023-07-29T00:46:40;93977.19;;;17.35;98.92
27643;BME280;15053;48.618;10.024;2023-07-29T00:49:07;93975.66;;;17.34;98.63
27643;BME280;15053;48.618;10.024;2023-07-29T00:51:34;93972.19;;;17.30;98.69
27643;BME280;15053;48.618;10.024;2023-07-29T00:54:01;93964.28;;;17.30;98.92
27643;BME280;15053;48.618;10.024;2023-07-29T00:56:28;93963.84;;;17.28;99.02
27643;BME280;15053;48.618;10.024;2023-07-29T00:58:54;93967.59;;;17.27;98.95
27643;BME280;15053;48.618;10.024;2023-07-29T01:01:26;93958.16;;;17.26;99.18
27643;BME280;15053;48.618;10.024;2023-07-29T01:03:53;93950.59;;;17.25;99.12
27643;BME280;15053;48.618;10.024;2023-07-29T01:06:23;93960.00;;;17.26;99.37
27643;BME280;15053;48.618;10.024;2023-07-29T01:09:05;93961.19;;;17.28;99.45
27643;BME280;15053;48.618;10.024;2023-07-29T01:11:41;93957.81;;;17.28;99.23
27643;BME280;15053;48.618;10.024;2023-07-29T01:14:29;93958.56;;;17.28;99.02
27643;BME280;15053;48.618;10.024;2023-07-29T01:17:03;93960.47;;;17.28;99.23
27643;BME280;15053;48.618;10.024;2023-07-29T01:22:36;93952.22;;;17.29;99.45
27643;BME280;15053;48.618;10.024;2023-07-29T01:25:03;93941.69;;;17.29;99.65
27643;BME280;15053;48.618;10.024;2023-07-29T01:27:30;93946.94;;;17.29;99.55
27643;BME280;15053;48.618;10.024;2023-07-29T01:29:58;93941.69;;;17.29;99.49
27643;BME280;15053;48.618;10.024;2023-07-29T01:32:31;93945.50;;;17.32;99.64
27643;BME280;15053;48.618;10.024;2023-07-29T01:35:09;93946.28;;;17.32;99.59
27643;BME280;15053;48.618;10.024;2023-07-29T01:37:38;93942.44;;;17.30;99.88
27643;BME280;15053;48.618;10.024;2023-07-29T01:40:08;93953.50;;;17.35;99.76
27643;BME280;15053;48.618;10.024;2023-07-29T01:42:35;93930.97;;;17.22;99.98
27643;BME280;15053;48.618;10.024;2023-07-29T01:45:04;93956.13;;;17.35;100.00
27643;BME280;15053;48.618;10.024;2023-07-29T01:47:31;93944.06;;;17.34;100.00
27643;BME280;15053;48.618;10.024;2023-07-29T01:49:58;93945.59;;;17.35;100.00
27643;BME280;15053;48.618;10.024;2023-07-29T01:52:24;93946.03;;;17.37;100.00
27643;BME280;15053;48.618;10.024;2023-07-29T01:54:50;93944.16;;;17.38;100.00
27643;BME280;15053;48.618;10.024;2023-07-29T01:57:17;93950.22;;;17.38;100.00
27643;BME280;15053;48.618;10.024;2023-07-29T01:59:43;93944.16;;;17.38;100.00
27643;BME280;15053;48.618;10.024;2023-07-29T02:02:10;93944.84;;;17.35;100.00
27643;BME280;15053;48.618;10.024;2023-07-29T02:04:37;93937.25;;;17.33;100.00
27643;BME280;15053;48.618;10.024;2023-07-29T02:07:03;93932.00;;;17.33;100.00
27643;BME280;15053;48.618;10.024;2023-07-29T02:09:30;93930.59;;;17.36;100.00
27643;BME280;15053;48.618;10.024;2023-07-29T02:11:58;93923.44;;;17.36;100.00
27643;BME280;15053;48.618;10.024;2023-07-29T02:14:24;93932.53;;;17.39;100.00
27643;BME280;15053;48.618;10.024;2023-07-29T02:16:51;93932.19;;;17.40;100.00
27643;BME280;15053;48.618;10.024;2023-07-29T02:19:18;93932.97;;;17.41;100.00
27643;BME280;15053;48.618;10.024;2023-07-29T02:21:46;93942.06;;;17.43;100.00
27643;BME280;15053;48.618;10.024;2023-07-29T02:24:13;93934.59;;;17.45;100.00
27643;BME280;15053;48.618;10.024;2023-07-29T02:26:39;93938.41;;;17.48;100.00
27643;BME280;15053;48.618;10.024;2023-07-29T02:29:06;93938.09;;;17.49;100.00
27643;BME280;15053;48.618;10.024;2023-07-29T02:31:33;93927.97;;;17.51;100.00
27643;BME280;15053;48.618;10.024;2023-07-29T02:34:01;93916.66;;;17.51;100.00
27643;BME280;15053;48.618;10.024;2023-07-29T02:36:27;93925.78;;;17.53;100.00
27643;BME280;15053;48.618;10.024;2023-07-29T02:38:54;93929.97;;;17.54;100.00
27643;BME280;15053;48.618;10.024;2023-07-29T02:41:21;93927.75;;;17.56;100.00
27643;BME280;15053;48.618;10.024;2023-07-29T02:43:48;93931.47;;;17.55;100.00
27643;BME280;15053;48.618;10.024;2023-07-29T02:46:15;93925.13;;;17.56;100.00
27643;BME280;15053;48.618;10.024;2023-07-29T02:48:43;93922.84;;;17.55;100.00
27643;BME280;15053;48.618;10.024;2023-07-29T02:51:10;93928.16;;;17.58;100.00
27643;BME280;15053;48.618;10.024;2023-07-29T02:53:37;93919.44;;;17.54;100.00
27643;BME280;15053;48.618;10.024;2023-07-29T02:56:04;93919.84;;;17.56;100.00
27643;BME280;15053;48.618;10.024;2023-07-29T02:58:35;93923.56;;;17.55;100.00
27643;BME280;15053;48.618;10.024;2023-07-29T03:01:03;93914.47;;;17.53;100.00
27643;BME280;15053;48.618;10.024;2023-07-29T03:03:31;93918.97;;;17.52;100.00
27643;BME280;15053;48.618;10.024;2023-07-29T03:06:03;93914.38;;;17.49;100.00
27643;BME280;15053;48.618;10.024;2023-07-29T03:08:30;93913.19;;;17.47;100.00
27643;BME280;15053;48.618;10.024;2023-07-29T03:10:57;93904.53;;;17.46;99.95
27643;BME280;15053;48.618;10.024;2023-07-29T03:13:24;93893.53;;;17.44;100.00
27643;BME280;15053;48.618;10.024;2023-07-29T03:15:51;93893.72;;;17.36;99.98
27643;BME280;15053;48.618;10.024;2023-07-29T03:18:18;93893.38;;;17.37;100.00
27643;BME280;15053;48.618;10.024;2023-07-29T03:20:44;93895.13;;;17.33;100.00
27643;BME280;15053;48.618;10.024;2023-07-29T03:23:11;93894.19;;;17.26;100.00
27643;BME280;15053;48.618;10.024;2023-07-29T03:25:37;93903.81;;;17.34;100.00
27643;BME280;15053;48.618;10.024;2023-07-29T03:28:04;93889.88;;;17.33;100.00
27643;BME280;15053;48.618;10.024;2023-07-29T03:30:31;93889.88;;;17.33;99.92
27643;BME280;15053;48.618;10.024;2023-07-29T03:32:58;93879.69;;;17.32;99.65
27643;BME280;15053;48.618;10.024;2023-07-29T03:35:24;93889.47;;;17.31;100.00
27643;BME280;15053;48.618;10.024;2023-07-29T03:37:51;93884.19;;;17.31;99.72
27643;BME280;15053;48.618;10.024;2023-07-29T03:40:17;93889.03;;;17.29;99.92
27643;BME280;15053;48.618;10.024;2023-07-29T03:42:44;93875.44;;;17.27;100.00
27643;BME280;15053;48.618;10.024;2023-07-29T03:45:11;93880.72;;;17.27;99.95
27643;BME280;15053;48.618;10.024;2023-07-29T03:47:38;93880.72;;;17.27;99.96
27643;BME280;15053;48.618;10.024;2023-07-29T03:50:05;93879.19;;;17.26;99.93
27643;BME280;15053;48.618;10.024;2023-07-29T03:52:32;93886.66;;;17.24;100.00
27643;BME280;15053;48.618;10.024;2023-07-29T03:54:59;93884.78;;;17.25;100.00
27643;BME280;15053;48.618;10.024;2023-07-29T03:57:25;93876.53;;;17.26;100.00
27643;BME280;15053;48.618;10.024;2023-07-29T03:59:52;93877.31;;;17.27;100.00
27643;BME280;15053;48.618;10.024;2023-07-29T04:02:18;93882.69;;;17.30;100.00
27643;BME280;15053;48.618;10.024;2023-07-29T04:04:46;93872.56;;;17.32;100.00
27643;BME280;15053;48.618;10.024;2023-07-29T04:07:14;93875.19;;;17.32;100.00
27643;BME280;15053;48.618;10.024;2023-07-29T04:09:41;93874.94;;;17.37;100.00
27643;BME280;15053;48.618;10.024;2023-07-29T04:12:09;93874.28;;;17.40;100.00
27643;BME280;15053;48.618;10.024;2023-07-29T04:14:36;93873.59;;;17.43;100.00
27643;BME280;15053;48.618;10.024;2023-07-29T04:17:03;93870.28;;;17.46;100.00
27643;BME280;15053;48.618;10.024;2023-07-29T04:19:29;93870.72;;;17.48;100.00
27643;BME280;15053;48.618;10.024;2023-07-29T04:21:57;93871.13;;;17.50;100.00
27643;BME280;15053;48.618;10.024;2023-07-29T04:24:23;93870.81;;;17.52;100.00
27643;BME280;15053;48.618;10.024;2023-07-29T04:26:50;93870.81;;;17.52;100.00
27643;BME280;15053;48.618;10.024;2023-07-29T04:29:16;93865.88;;;17.50;100.00
27643;BME280;15053;48.618;10.024;2023-07-29T04:31:43;93872.31;;;17.53;100.00
27643;BME280;15053;48.618;10.024;2023-07-29T04:34:10;93873.13;;;17.53;100.00
27643;BME280;15053;48.618;10.024;2023-07-29T04:36:38;93865.63;;;17.55;100.00
27643;BME280;15053;48.618;10.024;2023-07-29T04:39:05;93868.63;;;17.54;100.00
27643;BME280;15053;48.618;10.024;2023-07-29T04:41:32;93866.75;;;17.54;100.00
27643;BME280;15053;48.618;10.024;2023-07-29T04:43:58;93862.59;;;17.53;100.00
27643;BME280;15053;48.618;10.024;2023-07-29T04:46:25;93872.03;;;17.54;100.00
27643;BME280;15053;48.618;10.024;2023-07-29T04:48:51;93873.13;;;17.53;100.00
27643;BME280;15053;48.618;10.024;2023-07-29T04:51:18;93876.19;;;17.55;100.00
27643;BME280;15053;48.618;10.024;2023-07-29T04:53:44;93876.94;;;17.56;100.00
27643;BME280;15053;48.618;10.024;2023-07-29T04:56:11;93885.25;;;17.58;100.00
27643;BME280;15053;48.618;10.024;2023-07-29T04:58:37;93889.13;;;17.60;100.00
27643;BME280;15053;48.618;10.024;2023-07-29T05:01:04;93880.09;;;17.61;100.00
27643;BME280;15053;48.618;10.024;2023-07-29T05:03:31;93878.66;;;17.64;100.00
27643;BME280;15053;48.618;10.024;2023-07-29T05:05:58;93873.06;;;17.65;100.00
27643;BME280;15053;48.618;10.024;2023-07-29T05:08:27;93873.47;;;17.67;100.00
27643;BME280;15053;48.618;10.024;2023-07-29T05:10:54;93868.28;;;17.71;100.00
27643;BME280;15053;48.618;10.024;2023-07-29T05:13:22;93871.00;;;17.75;100.00
27643;BME280;15053;48.618;10.024;2023-07-29T05:15:50;93864.63;;;17.76;100.00
27643;BME280;15053;48.618;10.024;2023-07-29T05:18:17;93867.69;;;17.78;100.00
27643;BME280;15053;48.618;10.024;2023-07-29T05:20:44;93860.63;;;17.82;100.00
27643;BME280;15053;48.618;10.024;2023-07-29T05:23:10;93864.97;;;17.90;100.00
27643;BME280;15053;48.618;10.024;2023-07-29T05:25:37;93862.06;;;17.95;100.00
27643;BME280;15053;48.618;10.024;2023-07-29T05:28:04;93860.72;;;18.01;100.00
27643;BME280;15053;48.618;10.024;2023-07-29T05:30:32;93868.75;;;18.08;100.00
27643;BME280;15053;48.618;10.024;2023-07-29T05:33:00;93870.03;;;18.14;100.00
27643;BME280;15053;48.618;10.024;2023-07-29T05:35:27;93866.44;;;18.22;100.00
27643;BME280;15053;48.618;10.024;2023-07-29T05:37:54;93876.03;;;18.30;100.00
27643;BME280;15053;48.618;10.024;2023-07-29T05:40:20;93878.06;;;18.37;100.00
27643;BME280;15053;48.618;10.024;2023-07-29T05:42:47;93864.53;;;18.38;100.00
27643;BME280;15053;48.618;10.024;2023-07-29T05:45:14;93872.13;;;18.40;100.00
27643;BME280;15053;48.618;10.024;2023-07-29T05:47:41;93882.81;;;18.47;99.87
27643;BME280;15053;48.618;10.024;2023-07-29T05:50:08;93887.50;;;18.53;99.56
27643;BME280;15053;48.618;10.024;2023-07-29T05:52:34;93883.06;;;18.57;99.44
27643;BME280;15053;48.618;10.024;2023-07-29T05:55:01;93887.72;;;18.64;99.11
27643;BME280;15053;48.618;10.024;2023-07-29T05:57:28;93881.75;;;18.67;99.35
27643;BME280;15053;48.618;10.024;2023-07-29T05:59:55;93888.63;;;18.71;99.28
27643;BME280;15053;48.618;10.024;2023-07-29T06:02:21;93893.13;;;18.71;99.07
27643;BME280;15053;48.618;10.024;2023-07-29T06:04:48;93887.81;;;18.67;98.75
27643;BME280;15053;48.618;10.024;2023-07-29T06:07:14;93888.41;;;18.61;98.98
27643;BME280;15053;48.618;10.024;2023-07-29T06:09:41;93896.25;;;18.57;98.88
27643;BME280;15053;48.618;10.024;2023-07-29T06:12:08;93937.25;;;18.55;99.10
27643;BME280;15053;48.618;10.024;2023-07-29T06:14:34;93986.09;;;18.49;99.14
27643;BME280;15053;48.618;10.024;2023-07-29T06:17:01;93943.59;;;18.35;99.93
27643;BME280;15053;48.618;10.024;2023-07-29T06:19:27;93936.19;;;18.24;100.00
27643;BME280;15053;48.618;10.024;2023-07-29T06:21:55;93919.09;;;18.18;100.00
27643;BME280;15053;48.618;10.024;2023-07-29T06:24:22;93935.59;;;18.15;100.00
27643;BME280;15053;48.618;10.024;2023-07-29T06:26:48;93928.44;;;18.16;100.00
27643;BME280;15053;48.618;10.024;2023-07-29T06:29:15;93920.13;;;18.14;100.00
27643;BME280;15053;48.618;10.024;2023-07-29T06:31:41;93907.78;;;18.18;100.00
27643;BME280;15053;48.618;10.024;2023-07-29T06:34:08;93910.59;;;18.25;100.00
27643;BME280;15053;48.618;10.024;2023-07-29T06:36:34;93908.13;;;18.32;100.00
27643;BME280;15053;48.618;10.024;2023-07-29T06:39:01;93900.44;;;18.43;100.00
27643;BME280;15053;48.618;10.024;2023-07-29T06:41:28;93902.91;;;18.51;100.00
27643;BME280;15053;48.618;10.024;2023-07-29T06:43:54;93900.81;;;18.60;100.00
27643;BME280;15053;48.618;10.024;2023-07-29T06:46:21;93899.88;;;18.68;100.00
27643;BME280;15053;48.618;10.024;2023-07-29T06:48:48;93898.00;;;18.88;100.00
27643;BME280;15053;48.618;10.024;2023-07-29T06:51:14;93893.09;;;19.06;100.00
27643;BME280;15053;48.618;10.024;2023-07-29T06:53:41;93890.28;;;19.18;100.00
27643;BME280;15053;48.618;10.024;2023-07-29T06:56:07;93895.06;;;19.31;100.00
27643;BME280;15053;48.618;10.024;2023-07-29T06:58:34;93907.38;;;19.43;99.50
27643;BME280;15053;48.618;10.024;2023-07-29T07:01:01;93902.19;;;19.47;98.86
27643;BME280;15053;48.618;10.024;2023-07-29T07:03:29;93897.31;;;19.49;98.39
27643;BME280;15053;48.618;10.024;2023-07-29T07:05:56;93903.75;;;19.51;98.19
27643;BME280;15053;48.618;10.024;2023-07-29T07:08:22;93909.13;;;19.55;98.32
27643;BME280;15053;48.618;10.024;2023-07-29T07:10:49;93914.47;;;19.58;98.53
27643;BME280;15053;48.618;10.024;2023-07-29T07:13:15;93894.91;;;19.63;98.56
27643;BME280;15053;48.618;10.024;2023-07-29T07:15:42;93895.78;;;19.70;98.25
27643;BME280;15053;48.618;10.024;2023-07-29T07:18:09;93899.66;;;19.76;98.65
27643;BME280;15053;48.618;10.024;2023-07-29T07:20:35;93891.44;;;19.81;97.62
27643;BME280;15053;48.618;10.024;2023-07-29T07:23:03;93892.28;;;19.85;97.42
27643;BME280;15053;48.618;10.024;2023-07-29T07:25:31;93895.41;;;19.94;97.17
27643;BME280;15053;48.618;10.024;2023-07-29T07:27:58;93894.84;;;20.05;97.19
27643;BME280;15053;48.618;10.024;2023-07-29T07:30:24;93897.59;;;20.12;96.67
27643;BME280;15053;48.618;10.024;2023-07-29T07:32:51;93901.06;;;20.16;96.68
27643;BME280;15053;48.618;10.024;2023-07-29T07:35:17;93894.63;;;20.17;95.99
27643;BME280;15053;48.618;10.024;2023-07-29T07:37:45;93901.06;;;20.16;95.77
27643;BME280;15053;48.618;10.024;2023-07-29T07:40:11;93891.53;;;20.11;95.92
27643;BME280;15053;48.618;10.024;2023-07-29T07:42:38;93898.72;;;20.11;96.07
27643;BME280;15053;48.618;10.024;2023-07-29T07:45:05;93888.84;;;20.08;95.71
27643;BME280;15053;48.618;10.024;2023-07-29T07:47:31;93890.25;;;20.01;95.43
27643;BME280;15053;48.618;10.024;2023-07-29T07:49:58;93897.03;;;19.99;95.64
27643;BME280;15053;48.618;10.024;2023-07-29T07:52:24;93896.97;;;19.95;95.64
27643;BME280;15053;48.618;10.024;2023-07-29T07:54:52;93907.44;;;19.88;95.86
27643;BME280;15053;48.618;10.024;2023-07-29T07:57:22;93907.78;;;19.87;96.51
27643;BME280;15053;48.618;10.024;2023-07-29T07:59:49;93920.50;;;19.81;96.55
27643;BME280;15053;48.618;10.024;2023-07-29T08:02:17;93926.03;;;19.73;97.28
27643;BME280;15053;48.618;10.024;2023-07-29T08:04:43;93935.66;;;19.62;97.65
27643;BME280;15053;48.618;10.024;2023-07-29T08:07:10;93942.34;;;19.56;98.94
27643;BME280;15053;48.618;10.024;2023-07-29T08:09:36;93937.69;;;19.49;99.53
27643;BME280;15053;48.618;10.024;2023-07-29T08:12:03;93931.78;;;19.36;99.30
27643;BME280;15053;48.618;10.024;2023-07-29T08:14:29;93946.22;;;19.23;97.96
27643;BME280;15053;48.618;10.024;2023-07-29T08:16:56;93946.72;;;19.10;96.66
27643;BME280;15053;48.618;10.024;2023-07-29T08:19:22;93951.16;;;19.06;95.89
27643;BME280;15053;48.618;10.024;2023-07-29T08:21:49;93936.72;;;19.00;95.48
27643;BME280;15053;48.618;10.024;2023-07-29T08:24:15;93939.75;;;19.02;95.71
27643;BME280;15053;48.618;10.024;2023-07-29T08:26:42;93939.06;;;19.05;95.69
27643;BME280;15053;48.618;10.024;2023-07-29T08:29:08;93930.94;;;19.13;95.51
27643;BME280;15053;48.618;10.024;2023-07-29T08:31:35;93927.34;;;19.21;95.01
27643;BME280;15053;48.618;10.024;2023-07-29T08:34:02;93926.28;;;19.26;94.46
27643;BME280;15053;48.618;10.024;2023-07-29T08:36:28;93921.75;;;19.26;94.45
27643;BME280;15053;48.618;10.024;2023-07-29T08:38:55;93921.66;;;19.38;94.74
27643;BME280;15053;48.618;10.024;2023-07-29T08:41:27;93911.63;;;19.48;94.89
27643;BME280;15053;48.618;10.024;2023-07-29T08:44:01;93915.16;;;19.55;94.97
27643;BME280;15053;48.618;10.024;2023-07-29T08:46:30;93918.91;;;19.54;95.02
27643;BME280;15053;48.618;10.024;2023-07-29T08:48:57;93919.31;;;19.56;94.98
27643;BME280;15053;48.618;10.024;2023-07-29T08:51:26;93923.44;;;19.54;94.84
27643;BME280;15053;48.618;10.024;2023-07-29T08:53:53;93916.91;;;19.48;94.90
27643;BME280;15053;48.618;10.024;2023-07-29T08:56:20;93927.13;;;19.49;94.94
27643;BME280;15053;48.618;10.024;2023-07-29T08:58:47;93938.03;;;19.48;95.33
27643;BME280;15053;48.618;10.024;2023-07-29T09:01:15;93947.91;;;19.51;95.03
27643;BME280;15053;48.618;10.024;2023-07-29T09:03:42;93949.22;;;19.60;95.55
27643;BME280;15053;48.618;10.024;2023-07-29T09:06:09;93945.28;;;19.73;95.30
27643;BME280;15053;48.618;10.024;2023-07-29T09:08:36;93949.72;;;19.88;95.64
27643;BME280;15053;48.618;10.024;2023-07-29T09:11:03;93947.72;;;20.05;95.90
27643;BME280;15053;48.618;10.024;2023-07-29T09:13:29;93954.25;;;20.11;95.38
27643;BME280;15053;48.618;10.024;2023-07-29T09:15:57;93956.06;;;20.07;94.58
27643;BME280;15053;48.618;10.024;2023-07-29T09:18:26;93943.16;;;20.01;95.08
27643;BME280;15053;48.618;10.024;2023-07-29T09:20:53;93955.53;;;19.97;94.99
27643;BME280;15053;48.618;10.024;2023-07-29T09:23:19;93948.28;;;19.94;94.78
27643;BME280;15053;48.618;10.024;2023-07-29T09:25:46;93945.63;;;19.91;95.12
27643;BME280;15053;48.618;10.024;2023-07-29T09:28:16;93951.78;;;19.98;95.24
27643;BME280;15053;48.618;10.024;2023-07-29T09:30:46;93952.59;;;20.02;94.64
27643;BME280;15053;48.618;10.024;2023-07-29T09:33:13;93947.28;;;20.02;94.71
27643;BME280;15053;48.618;10.024;2023-07-29T09:35:40;93960.50;;;20.02;94.72
27643;BME280;15053;48.618;10.024;2023-07-29T09:38:06;93954.41;;;19.98;93.48
27643;BME280;15053;48.618;10.024;2023-07-29T09:40:38;93952.06;;;19.93;93.60
27643;BME280;15053;48.618;10.024;2023-07-29T09:43:05;93951.25;;;19.89;93.42
27643;BME280;15053;48.618;10.024;2023-07-29T09:45:34;93962.50;;;19.86;93.81
27643;BME280;15053;48.618;10.024;2023-07-29T09:48:03;93954.28;;;19.91;94.54
27643;BME280;15053;48.618;10.024;2023-07-29T09:50:31;93946.25;;;20.07;94.78
27643;BME280;15053;48.618;10.024;2023-07-29T09:52:57;93932.50;;;20.21;94.87
27643;BME280;15053;48.618;10.024;2023-07-29T09:55:25;93922.50;;;20.33;94.66
27643;BME280;15053;48.618;10.024;2023-07-29T09:57:59;93927.53;;;20.42;94.19
27643;BME280;15053;48.618;10.024;2023-07-29T10:00:33;93923.41;;;20.44;93.92
27643;BME280;15053;48.618;10.024;2023-07-29T10:03:00;93920.00;;;20.44;93.45
27643;BME280;15053;48.618;10.024;2023-07-29T10:05:28;93922.63;;;20.40;92.72
27643;BME280;15053;48.618;10.024;2023-07-29T10:07:56;93917.66;;;20.39;92.47
27643;BME280;15053;48.618;10.024;2023-07-29T10:10:23;93916.16;;;20.38;92.31
27643;BME280;15053;48.618;10.024;2023-07-29T10:12:50;93915.63;;;20.55;92.77
27643;BME280;15053;48.618;10.024;2023-07-29T10:15:17;93917.00;;;20.72;91.61
27643;BME280;15053;48.618;10.024;2023-07-29T10:17:45;93908.13;;;20.87;91.04
27643;BME280;15053;48.618;10.024;2023-07-29T10:20:15;93902.28;;;21.04;89.83
27643;BME280;15053;48.618;10.024;2023-07-29T10:22:43;93896.88;;;21.23;90.47
27643;BME280;15053;48.618;10.024;2023-07-29T10:25:18;93899.03;;;21.51;89.14
27643;BME280;15053;48.618;10.024;2023-07-29T10:27:57;93899.59;;;21.67;87.27
27643;BME280;15053;48.618;10.024;2023-07-29T10:30:28;93905.09;;;21.88;86.20
27643;BME280;15053;48.618;10.024;2023-07-29T10:32:58;93905.16;;;21.95;85.19
27643;BME280;15053;48.618;10.024;2023-07-29T10:35:25;93888.13;;;21.96;84.30
27643;BME280;15053;48.618;10.024;2023-07-29T10:37:54;93877.97;;;22.05;84.46
27643;BME280;15053;48.618;10.024;2023-07-29T10:40:22;93888.31;;;22.21;84.74
27643;BME280;15053;48.618;10.024;2023-07-29T10:43:10;93899.84;;;22.46;84.56
27643;BME280;15053;48.618;10.024;2023-07-29T10:45:38;93905.25;;;22.60;84.01
27643;BME280;15053;48.618;10.024;2023-07-29T10:48:08;93908.66;;;22.61;81.49
27643;BME280;15053;48.618;10.024;2023-07-29T10:50:36;93909.03;;;22.59;82.84
27643;BME280;15053;48.618;10.024;2023-07-29T10:53:03;93908.00;;;22.71;80.76
27643;BME280;15053;48.618;10.024;2023-07-29T10:55:34;93910.31;;;22.83;79.65
27643;BME280;15053;48.618;10.024;2023-07-29T10:58:08;93896.28;;;22.79;78.48
27643;BME280;15053;48.618;10.024;2023-07-29T11:00:35;93892.47;;;22.80;78.65
27643;BME280;15053;48.618;10.024;2023-07-29T11:03:05;93891.84;;;23.08;79.21
27643;BME280;15053;48.618;10.024;2023-07-29T11:05:46;93891.56;;;23.34;77.03
27643;BME280;15053;48.618;10.024;2023-07-29T11:10:58;93898.88;;;23.62;73.73
27643;BME280;15053;48.618;10.024;2023-07-29T11:13:29;93895.84;;;23.74;72.31
27643;BME280;15053;48.618;10.024;2023-07-29T11:15:57;93878.75;;;23.82;73.23
27643;BME280;15053;48.618;10.024;2023-07-29T11:18:32;93884.50;;;24.12;73.16
27643;BME280;15053;48.618;10.024;2023-07-29T11:21:01;93879.94;;;24.23;68.85
27643;BME280;15053;48.618;10.024;2023-07-29T11:23:33;93877.66;;;24.18;66.30
27643;BME280;15053;48.618;10.024;2023-07-29T11:26:01;93878.41;;;24.15;66.17
27643;BME280;15053;48.618;10.024;2023-07-29T11:28:28;93869.28;;;24.23;66.28
27643;BME280;15053;48.618;10.024;2023-07-29T11:30:55;93870.78;;;24.38;67.15
27643;BME280;15053;48.618;10.024;2023-07-29T11:33:26;93868.47;;;24.58;63.78
27643;BME280;15053;48.618;10.024;2023-07-29T11:35:55;93857.44;;;24.63;63.04
27643;BME280;15053;48.618;10.024;2023-07-29T11:38:22;93860.16;;;24.42;62.63
27643;BME280;15053;48.618;10.024;2023-07-29T11:40:59;93865.47;;;24.38;62.86
27643;BME280;15053;48.618;10.024;2023-07-29T11:43:26;93885.19;;;24.65;64.38
27643;BME280;15053;48.618;10.024;2023-07-29T11:45:53;93865.75;;;24.90;60.57
27643;BME280;15053;48.618;10.024;2023-07-29T11:48:31;93885.09;;;25.08;60.22
27643;BME280;15053;48.618;10.024;2023-07-29T11:50:57;93867.94;;;25.16;61.44
27643;BME280;15053;48.618;10.024;2023-07-29T11:53:30;93876.72;;;25.13;61.40
27643;BME280;15053;48.618;10.024;2023-07-29T11:55:58;93873.72;;;24.93;63.04
27643;BME280;15053;48.618;10.024;2023-07-29T11:58:25;93872.91;;;25.10;63.19
27643;BME280;15053;48.618;10.024;2023-07-29T12:00:52;93868.31;;;25.18;63.15
27643;BME280;15053;48.618;10.024;2023-07-29T12:03:19;93868.25;;;25.32;61.57
27643;BME280;15053;48.618;10.024;2023-07-29T12:05:47;93845.66;;;25.54;61.79
27643;BME280;15053;48.618;10.024;2023-07-29T12:08:15;93858.94;;;25.61;59.93
27643;BME280;15053;48.618;10.024;2023-07-29T12:10:42;93845.94;;;25.67;59.77
27643;BME280;15053;48.618;10.024;2023-07-29T12:13:08;93863.84;;;25.66;57.94
27643;BME280;15053;48.618;10.024;2023-07-29T12:15:38;93843.03;;;25.47;60.69
27643;BME280;15053;48.618;10.024;2023-07-29T12:18:06;93834.50;;;25.66;61.23
27643;BME280;15053;48.618;10.024;2023-07-29T12:20:32;93842.09;;;25.71;62.34
27643;BME280;15053;48.618;10.024;2023-07-29T12:23:00;93842.94;;;25.61;61.79
27643;BME280;15053;48.618;10.024;2023-07-29T12:25:32;93834.66;;;25.42;61.17
27643;BME280;15053;48.618;10.024;2023-07-29T12:28:05;93840.78;;;25.35;62.18
27643;BME280;15053;48.618;10.024;2023-07-29T12:30:32;93842.28;;;25.40;60.67
27643;BME280;15053;48.618;10.024;2023-07-29T12:32:58;93837.75;;;25.33;62.36
27643;BME280;15053;48.618;10.024;2023-07-29T12:35:34;93833.50;;;25.46;64.02
27643;BME280;15053;48.618;10.024;2023-07-29T12:38:01;93831.19;;;25.45;63.35
27643;BME280;15053;48.618;10.024;2023-07-29T12:40:28;93826.16;;;25.61;62.41
27643;BME280;15053;48.618;10.024;2023-07-29T12:42:55;93829.31;;;26.00;60.88
27643;BME280;15053;48.618;10.024;2023-07-29T12:45:22;93837.75;;;26.40;60.31
27643;BME280;15053;48.618;10.024;2023-07-29T12:47:53;93832.53;;;26.63;57.31
27643;BME280;15053;48.618;10.024;2023-07-29T12:50:20;93846.44;;;26.84;55.86
27643;BME280;15053;48.618;10.024;2023-07-29T12:52:47;93837.84;;;26.66;55.30
27643;BME280;15053;48.618;10.024;2023-07-29T12:55:14;93836.88;;;26.50;56.17